Time;durP1;ratioP1;P1;durP2;ratioP2;P2;SDS_P1;SDS_P2;PMS_P1;PMS_P2;Temp;Humidity;BMP_temperature;BMP_pressure;BME280_temperature;BME280_humidity;BME280_pressure;Samples;Min_cycle;Max_cycle;Signal;HPM_P1;HPM_P2
2023/04/16 00:01:24;;;;;;;2.13;1.00;;;;;;;16.12;47.87;101232.22;4994965;28;20137;-71
2023/04/16 00:03:52;;;;;;;1.77;1.10;;;;;;;16.17;46.10;101242.75;5001322;28;20062;-70
2023/04/16 00:06:21;;;;;;;2.15;0.95;;;;;;;16.21;45.21;101241.03;4992991;28;20073;-69
2023/04/16 00:08:50;;;;;;;2.13;1.15;;;;;;;16.06;46.00;101245.19;4998546;28;20130;-70
2023/04/16 00:11:19;;;;;;;2.83;0.93;;;;;;;16.12;44.81;101236.56;4994448;28;20049;-70
2023/04/16 00:13:47;;;;;;;1.70;1.08;;;;;;;16.18;45.12;101241.88;5002028;28;20054;-71
2023/04/16 00:16:18;;;;;;;2.60;1.25;;;;;;;15.97;43.53;101247.69;5000203;28;20053;-71
2023/04/16 00:18:47;;;;;;;2.67;1.13;;;;;;;15.91;44.36;101250.19;5004354;28;20054;-71
2023/04/16 00:21:15;;;;;;;1.42;0.95;;;;;;;15.81;45.65;101240.47;5001159;28;20113;-71
2023/04/16 00:23:44;;;;;;;1.52;0.90;;;;;;;15.84;46.64;101250.94;4999087;28;20393;-71
2023/04/16 00:26:12;;;;;;;6.13;1.10;;;;;;;15.71;46.04;101244.63;5004223;28;20527;-70
2023/04/16 00:28:41;;;;;;;2.85;0.95;;;;;;;15.59;45.60;101247.03;4993519;28;20412;-71
2023/04/16 00:31:10;;;;;;;1.65;1.02;;;;;;;15.52;45.32;101240.81;5004992;28;20092;-70
2023/04/16 00:33:40;;;;;;;2.20;0.73;;;;;;;15.55;46.05;101238.25;5003538;28;20069;-70
2023/04/16 00:36:10;;;;;;;1.92;0.93;;;;;;;15.60;46.14;101230.50;4990799;28;20713;-70
2023/04/16 00:38:38;;;;;;;4.20;1.00;;;;;;;15.54;45.91;101226.06;4998330;28;20050;-69
2023/04/16 00:41:07;;;;;;;1.40;0.60;;;;;;;15.52;46.04;101227.78;5010328;28;20060;-69
2023/04/16 00:43:35;;;;;;;2.30;0.88;;;;;;;15.45;46.46;101226.78;5001930;28;20069;-70
2023/04/16 00:46:12;;;;;;;2.80;1.02;;;;;;;15.36;46.10;101223.16;5005965;28;20050;-70
2023/04/16 00:48:44;;;;;;;2.63;0.98;;;;;;;15.27;46.49;101222.13;4999886;28;20073;-70
2023/04/16 00:51:13;;;;;;;2.87;0.97;;;;;;;15.20;47.48;101215.06;5003223;28;20417;-70
2023/04/16 00:53:41;;;;;;;2.35;1.30;;;;;;;15.13;48.50;101213.19;4991252;28;20057;-69
2023/04/16 00:56:11;;;;;;;1.27;0.80;;;;;;;15.08;48.76;101210.50;5004119;28;20045;-69
2023/04/16 00:58:40;;;;;;;3.15;1.02;;;;;;;15.03;49.33;101206.06;5000319;28;20067;-70
2023/04/16 01:01:09;;;;;;;4.40;1.10;;;;;;;14.94;49.62;101206.78;4993133;28;20491;-71
2023/04/16 01:03:46;;;;;;;2.75;1.10;;;;;;;14.88;49.72;101206.66;4998132;28;20057;-72
2023/04/16 01:06:15;;;;;;;2.17;0.90;;;;;;;14.80;49.37;101201.31;5006152;28;20064;-71
2023/04/16 01:08:44;;;;;;;2.28;0.85;;;;;;;14.81;50.18;101207.38;4999902;28;20065;-71
2023/04/16 01:11:12;;;;;;;1.55;1.05;;;;;;;14.79;50.97;101191.72;5006739;28;20050;-70
2023/04/16 01:13:41;;;;;;;1.83;1.08;;;;;;;14.78;51.17;101197.78;4999318;28;20053;-71
2023/04/16 01:16:12;;;;;;;1.48;0.90;;;;;;;14.79;51.21;101196.06;5005198;28;20045;-71
2023/04/16 01:18:42;;;;;;;0.90;0.70;;;;;;;14.77;52.26;101192.53;5005796;28;20049;-71
2023/04/16 01:21:12;;;;;;;1.63;0.90;;;;;;;14.78;49.36;101187.38;5004888;28;20144;-70
2023/04/16 01:23:41;;;;;;;1.73;0.60;;;;;;;14.77;49.82;101193.41;4997287;28;20054;-70
2023/04/16 01:26:09;;;;;;;1.52;0.85;;;;;;;14.79;50.60;101191.72;5001480;28;20673;-70
2023/04/16 01:28:38;;;;;;;2.15;1.00;;;;;;;14.71;49.00;101190.72;5001303;28;20046;-71
2023/04/16 01:31:07;;;;;;;4.10;1.00;;;;;;;14.70;50.54;101182.84;5004946;28;20081;-71
2023/04/16 01:33:35;;;;;;;1.92;0.95;;;;;;;14.72;50.58;101179.44;5001563;28;20069;-71
2023/04/16 01:36:04;;;;;;;1.60;0.60;;;;;;;14.72;51.77;101184.63;5006767;28;20046;-70
2023/04/16 01:38:34;;;;;;;1.27;0.70;;;;;;;14.68;50.81;101193.22;5006860;28;20042;-70
2023/04/16 01:41:03;;;;;;;1.33;0.70;;;;;;;14.59;49.80;101186.13;5003940;28;20038;-71
2023/04/16 01:43:32;;;;;;;4.38;1.15;;;;;;;14.60;50.67;101184.41;5003973;28;20042;-70
2023/04/16 01:46:14;;;;;;;2.70;0.65;;;;;;;14.60;51.60;101200.03;5001893;28;20054;-70
2023/04/16 01:48:43;;;;;;;2.42;0.90;;;;;;;14.55;50.91;101191.25;5005813;28;20041;-72
2023/04/16 01:51:12;;;;;;;2.85;0.95;;;;;;;14.57;51.47;101192.16;5005403;28;20037;-72
2023/04/16 01:53:42;;;;;;;1.23;0.90;;;;;;;14.62;55.79;101188.78;5006814;28;20060;-72
2023/04/16 01:56:12;;;;;;;4.00;0.75;;;;;;;14.68;55.61;101181.94;5004043;28;20198;-72
2023/04/16 01:58:41;;;;;;;3.63;0.90;;;;;;;14.74;54.51;101188.16;5005039;28;20046;-71
2023/04/16 02:01:10;;;;;;;1.90;0.82;;;;;;;14.78;56.51;101186.50;4999407;28;20128;-72
2023/04/16 02:03:39;;;;;;;1.98;0.90;;;;;;;14.81;53.95;101174.38;5005957;28;20133;-72
2023/04/16 02:06:07;;;;;;;1.63;0.82;;;;;;;14.80;51.57;101175.25;5006985;28;20076;-71
2023/04/16 02:08:36;;;;;;;1.23;0.98;;;;;;;14.76;50.15;101168.22;5006122;28;20672;-72
2023/04/16 02:11:06;;;;;;;5.38;0.90;;;;;;;14.72;50.17;101168.13;5004101;28;20069;-73
2023/04/16 02:13:41;;;;;;;1.98;1.30;;;;;;;14.66;49.93;101163.69;5001631;28;20057;-71
2023/04/16 02:16:10;;;;;;;1.15;1.05;;;;;;;14.63;50.53;101163.63;5000953;28;20046;-70
2023/04/16 02:18:38;;;;;;;0.70;0.70;;;;;;;14.64;51.35;101165.41;5004892;28;20073;-71
2023/04/16 02:21:07;;;;;;;1.73;1.15;;;;;;;14.63;50.65;101161.00;5007967;28;20137;-70
2023/04/16 02:23:36;;;;;;;1.15;0.98;;;;;;;14.61;50.55;101161.00;4998378;28;20598;-70
2023/04/16 02:26:07;;;;;;;1.67;1.00;;;;;;;14.58;50.42;101152.25;5005317;28;20133;-71
2023/04/16 02:28:35;;;;;;;2.90;1.30;;;;;;;14.57;52.11;101143.56;5000433;28;20125;-72
2023/04/16 02:31:04;;;;;;;1.85;1.10;;;;;;;14.57;51.80;101142.69;5009443;28;20429;-70
2023/04/16 02:33:34;;;;;;;1.38;0.90;;;;;;;14.58;50.83;101149.63;5000929;28;20409;-70
2023/04/16 02:36:03;;;;;;;3.08;0.95;;;;;;;14.59;51.26;101146.16;4998599;28;20139;-71
2023/04/16 02:38:31;;;;;;;3.75;0.93;;;;;;;14.60;51.91;101138.41;5007941;28;20049;-70
2023/04/16 02:41:00;;;;;;;2.05;1.02;;;;;;;14.59;50.23;101139.25;5000718;28;20080;-70
2023/04/16 02:43:30;;;;;;;3.28;1.02;;;;;;;14.60;50.22;101137.53;5003946;28;20056;-71
2023/04/16 02:45:59;;;;;;;1.38;0.85;;;;;;;14.59;50.26;101138.34;5011988;28;20057;-72
2023/04/16 02:48:28;;;;;;;3.08;0.95;;;;;;;14.57;50.69;101142.69;5003976;28;20056;-72
2023/04/16 02:50:56;;;;;;;1.98;0.95;;;;;;;14.55;50.89;101149.59;5008603;28;20046;-70
2023/04/16 02:53:25;;;;;;;1.70;0.80;;;;;;;14.53;50.77;101146.03;5002436;28;20590;-70
2023/04/16 02:55:54;;;;;;;0.95;0.70;;;;;;;14.50;51.16;101140.75;5011398;28;20133;-71
2023/04/16 02:58:24;;;;;;;3.88;1.88;;;;;;;14.46;51.50;101152.84;5007400;28;20057;-73
2023/04/16 03:00:56;;;;;;;4.72;0.85;;;;;;;14.42;51.02;101149.28;5002172;28;20504;-73
2023/04/16 03:03:24;;;;;;;1.70;0.73;;;;;;;14.39;51.19;101145.78;5006268;28;20050;-72
2023/04/16 03:05:53;;;;;;;1.83;1.00;;;;;;;14.35;51.24;101147.41;5010873;28;20065;-73
2023/04/16 03:08:23;;;;;;;1.67;0.90;;;;;;;14.32;51.31;101149.09;5004520;28;20606;-74
2023/04/16 03:10:51;;;;;;;1.65;1.17;;;;;;;14.28;50.90;101150.75;5011900;28;20110;-74
2023/04/16 03:13:20;;;;;;;1.35;0.75;;;;;;;14.24;51.24;101152.41;5012622;28;20519;-73
2023/04/16 03:15:50;;;;;;;1.10;0.73;;;;;;;14.21;51.64;101146.25;5009088;28;20502;-74
2023/04/16 03:18:20;;;;;;;1.75;0.90;;;;;;;14.17;52.11;101144.44;5004164;28;20049;-73
2023/04/16 03:20:53;;;;;;;1.08;0.70;;;;;;;14.14;52.92;101141.78;5012579;28;20133;-73
2023/04/16 03:23:21;;;;;;;;;;;;;;;14.09;52.67;101143.38;5003134;28;20054;-75
2023/04/16 03:25:49;;;;;;;4.90;1.08;;;;;;;14.00;52.68;101144.09;5004868;28;19929;-73
2023/04/16 03:28:18;;;;;;;0.98;0.68;;;;;;;13.93;53.54;101137.88;5015175;28;20050;-73
2023/04/16 03:30:52;;;;;;;3.05;0.70;;;;;;;13.91;54.44;101139.56;5007247;28;20089;-75
2023/04/16 03:33:23;;;;;;;1.02;0.70;;;;;;;13.87;54.94;101142.06;5009731;28;20049;-76
2023/04/16 03:35:57;;;;;;;1.13;0.80;;;;;;;13.75;56.82;101137.47;5002802;28;20757;-73
2023/04/16 03:38:26;;;;;;;2.17;0.80;;;;;;;13.66;58.09;101139.84;5010021;28;20068;-73
2023/04/16 03:40:55;;;;;;;2.38;0.95;;;;;;;13.61;58.80;101139.75;5002449;28;20049;-73
2023/04/16 03:43:24;;;;;;;1.27;0.70;;;;;;;13.56;59.17;101141.34;5006211;28;20129;-74
2023/04/16 03:45:52;;;;;;;1.55;1.13;;;;;;;13.54;58.22;101138.72;5004616;28;20065;-74
2023/04/16 03:48:22;;;;;;;2.42;1.02;;;;;;;13.55;58.51;101148.28;4999597;28;20050;-74
2023/04/16 03:50:51;;;;;;;5.25;1.30;;;;;;;13.52;59.17;101142.13;4999521;28;20105;-73
2023/04/16 03:53:20;;;;;;;2.42;1.10;;;;;;;13.46;58.59;101140.25;5004050;28;20045;-74
2023/04/16 03:55:51;;;;;;;2.10;1.05;;;;;;;13.40;58.52;101150.53;5010717;28;20042;-74
2023/04/16 03:58:20;;;;;;;1.60;0.90;;;;;;;13.33;59.02;101153.78;5008082;28;20655;-73
2023/04/16 04:00:50;;;;;;;4.80;1.17;;;;;;;13.27;59.07;101149.31;4994972;28;20082;-73
2023/04/16 04:03:19;;;;;;;2.70;1.35;;;;;;;13.21;58.71;101159.53;5002531;28;20053;-74
2023/04/16 04:05:49;;;;;;;3.70;1.25;;;;;;;13.08;59.03;101153.16;5002299;28;20673;-73
2023/04/16 04:08:18;;;;;;;4.45;1.48;;;;;;;13.11;59.55;101166.22;5007537;28;20046;-73
2023/04/16 04:10:46;;;;;;;2.83;1.00;;;;;;;13.05;61.10;101168.66;5005638;28;20070;-73
2023/04/16 04:13:15;;;;;;;3.72;1.70;;;;;;;12.99;61.16;101168.50;5006081;28;20134;-73
2023/04/16 04:15:45;;;;;;;1.98;1.10;;;;;;;12.96;62.98;101166.72;5006811;28;20054;-72
2023/04/16 04:18:13;;;;;;;1.98;1.08;;;;;;;12.94;62.29;101175.28;5002775;28;20053;-73
2023/04/16 04:20:42;;;;;;;5.07;1.30;;;;;;;12.90;61.50;101181.25;5011866;28;20049;-73
2023/04/16 04:23:12;;;;;;;4.75;1.48;;;;;;;12.81;61.85;101178.41;5004906;28;20125;-73
2023/04/16 04:25:41;;;;;;;2.97;1.80;;;;;;;12.78;61.89;101186.97;5003886;28;20145;-72
2023/04/16 04:28:09;;;;;;;3.35;1.17;;;;;;;12.76;63.03;101194.75;5007061;28;20045;-73
2023/04/16 04:30:38;;;;;;;1.90;1.60;;;;;;;12.71;63.38;101185.97;4997883;28;20050;-73
2023/04/16 04:33:06;;;;;;;4.85;1.42;;;;;;;12.70;64.45;101194.56;5001394;28;20050;-75
2023/04/16 04:35:35;;;;;;;2.17;1.33;;;;;;;12.74;65.29;101199.00;5005314;28;20074;-74
2023/04/16 04:38:04;;;;;;;2.83;1.35;;;;;;;12.73;67.52;101196.34;5003368;28;20049;-73
2023/04/16 04:40:34;;;;;;;3.10;1.67;;;;;;;12.67;65.44;101202.28;5002120;28;20104;-74
2023/04/16 04:43:03;;;;;;;1.23;0.90;;;;;;;12.61;66.62;101201.22;5002479;28;20046;-74
2023/04/16 04:45:32;;;;;;;2.22;1.00;;;;;;;12.54;66.27;101194.97;5002248;28;20153;-74
2023/04/16 04:48:00;;;;;;;2.28;1.08;;;;;;;12.54;67.71;101188.06;5008977;28;20042;-73
2023/04/16 04:50:29;;;;;;;3.60;1.17;;;;;;;12.55;69.09;101197.63;5006587;28;20109;-74
2023/04/16 04:52:58;;;;;;;1.98;1.00;;;;;;;12.52;67.51;101192.31;5001558;28;20054;-74
2023/04/16 04:55:26;;;;;;;3.08;1.08;;;;;;;12.48;67.58;101184.41;4997047;28;20086;-75
2023/04/16 04:57:57;;;;;;;11.68;1.85;;;;;;;12.44;68.02;101177.34;5002108;28;20058;-73
2023/04/16 05:00:25;;;;;;;1.55;0.90;;;;;;;12.36;66.07;101171.97;4999879;28;20046;-74
2023/04/16 05:02:54;;;;;;;4.78;1.67;;;;;;;12.34;64.87;101177.09;5004367;28;20405;-73
2023/04/16 05:05:23;;;;;;;9.23;1.75;;;;;;;12.31;64.61;101177.03;5006472;28;20042;-73
2023/04/16 05:07:51;;;;;;;5.15;1.17;;;;;;;12.30;65.70;101169.19;5003279;28;20054;-73
2023/04/16 05:10:20;;;;;;;2.75;1.35;;;;;;;12.20;68.73;101152.47;5002388;28;20054;-75
2023/04/16 05:12:48;;;;;;;5.35;1.42;;;;;;;12.26;68.00;101178.59;5005405;28;20061;-74
2023/04/16 05:15:19;;;;;;;5.60;1.20;;;;;;;12.22;66.32;101176.75;5008289;28;20053;-75
2023/04/16 05:17:47;;;;;;;2.15;1.25;;;;;;;12.18;65.14;101174.91;5001264;28;20057;-75
2023/04/16 05:20:16;;;;;;;2.88;1.25;;;;;;;12.21;66.85;101179.28;5005520;28;20045;-73
2023/04/16 05:22:44;;;;;;;8.32;1.42;;;;;;;12.24;66.10;101182.00;5009708;28;20051;-73
2023/04/16 05:25:13;;;;;;;6.90;1.48;;;;;;;12.27;66.05;101179.47;5006803;28;20037;-75
2023/04/16 05:27:42;;;;;;;3.55;1.40;;;;;;;12.30;66.67;101179.56;5003979;28;20049;-73
2023/04/16 05:30:11;;;;;;;13.02;1.38;;;;;;;12.31;67.14;101171.84;4992879;28;20057;-71
2023/04/16 05:32:42;;;;;;;3.90;1.38;;;;;;;12.31;67.33;101171.84;5002274;28;20511;-72
2023/04/16 05:35:11;;;;;;;2.00;1.02;;;;;;;12.31;66.61;101177.03;5003358;28;20058;-72
2023/04/16 05:37:39;;;;;;;3.15;0.98;;;;;;;12.30;65.31;101175.28;5001501;28;20043;-71
2023/04/16 05:40:09;;;;;;;11.13;1.30;;;;;;;12.30;66.12;101164.91;5005810;28;20046;-71
2023/04/16 05:42:38;;;;;;;2.03;1.23;;;;;;;12.30;68.09;101164.00;5003154;28;20050;-71
2023/04/16 05:45:08;;;;;;;2.22;1.20;;;;;;;12.23;68.17;101169.84;5005713;28;20046;-71
2023/04/16 05:47:36;;;;;;;7.03;1.60;;;;;;;12.15;68.76;101169.63;5003934;28;20049;-72
2023/04/16 05:50:07;;;;;;;1.13;0.80;;;;;;;12.05;72.78;101170.16;5004617;28;20081;-71
2023/04/16 05:52:36;;;;;;;3.80;1.13;;;;;;;11.97;71.13;101169.06;5003456;28;20498;-71
2023/04/16 05:55:05;;;;;;;4.65;1.30;;;;;;;11.89;69.41;101167.13;5005404;28;20451;-71
2023/04/16 05:57:34;;;;;;;2.85;0.80;;;;;;;11.87;69.34;101168.78;5003191;28;20038;-71
2023/04/16 06:00:03;;;;;;;3.10;1.15;;;;;;;11.81;68.05;101172.88;5000102;28;20088;-71
2023/04/16 06:02:32;;;;;;;6.72;1.58;;;;;;;11.76;67.49;101174.44;5006107;28;20054;-71
2023/04/16 06:05:01;;;;;;;1.67;1.08;;;;;;;11.74;66.73;101171.81;5005950;28;20048;-70
2023/04/16 06:07:31;;;;;;;4.30;1.35;;;;;;;11.69;66.53;101173.38;5002827;28;20312;-71
2023/04/16 06:09:59;;;;;;;8.93;1.48;;;;;;;11.67;66.37;101169.84;5001272;28;20144;-72
2023/04/16 06:12:28;;;;;;;4.20;1.23;;;;;;;11.65;66.53;101172.38;5005345;28;20042;-71
2023/04/16 06:14:57;;;;;;;9.82;1.23;;;;;;;11.64;67.05;101168.03;4989363;28;20060;-71
2023/04/16 06:17:25;;;;;;;3.55;1.40;;;;;;;11.61;68.96;101160.16;4990609;28;20046;-72
2023/04/16 06:19:54;;;;;;;3.58;1.20;;;;;;;11.57;70.44;101157.41;4992102;28;20149;-71
2023/04/16 06:22:23;;;;;;;3.75;1.17;;;;;;;11.53;73.52;101161.63;4993835;28;20054;-72
2023/04/16 06:24:54;;;;;;;8.32;1.73;;;;;;;11.44;73.23;101158.75;4985709;28;20050;-72
2023/04/16 06:27:23;;;;;;;1.95;0.95;;;;;;;11.35;74.08;101153.28;4980024;28;20056;-70
2023/04/16 06:29:51;;;;;;;5.55;1.08;;;;;;;11.28;72.38;101154.78;4984217;28;20156;-71
2023/04/16 06:32:20;;;;;;;7.72;1.23;;;;;;;11.23;71.50;101153.75;4991739;28;20213;-72
2023/04/16 06:34:49;;;;;;;4.97;1.25;;;;;;;11.17;70.80;101150.94;4986527;28;20132;-72
2023/04/16 06:37:17;;;;;;;2.33;1.33;;;;;;;11.00;70.43;101143.50;4984686;28;20054;-72
2023/04/16 06:39:46;;;;;;;3.22;1.20;;;;;;;11.03;70.72;101148.78;4987949;28;20038;-71
2023/04/16 06:42:16;;;;;;;4.80;1.33;;;;;;;11.01;72.51;101150.44;4987425;28;20050;-72
2023/04/16 06:44:45;;;;;;;4.03;1.85;;;;;;;10.96;71.25;101148.53;4980046;28;20054;-72
2023/04/16 06:47:13;;;;;;;5.07;0.90;;;;;;;10.88;71.45;101143.97;4987342;28;20440;-72
2023/04/16 06:49:42;;;;;;;3.10;1.02;;;;;;;10.85;72.41;101142.97;4981018;28;20058;-71
2023/04/16 06:52:11;;;;;;;6.57;0.90;;;;;;;10.81;72.55;101147.19;4986444;28;20034;-71
2023/04/16 06:54:40;;;;;;;2.40;1.05;;;;;;;10.77;71.61;101149.59;4982505;28;20106;-71
2023/04/16 06:57:09;;;;;;;2.50;0.95;;;;;;;10.72;72.29;101145.94;4985358;28;20046;-72
2023/04/16 06:59:39;;;;;;;5.30;1.15;;;;;;;10.65;72.17;101145.75;4985274;28;20790;-71
2023/04/16 07:02:08;;;;;;;5.05;1.15;;;;;;;10.59;72.02;101142.06;4989685;28;20070;-71
2023/04/16 07:04:37;;;;;;;4.15;0.93;;;;;;;10.53;74.25;101134.94;4987614;28;20421;-70
2023/04/16 07:07:05;;;;;;;6.75;1.60;;;;;;;10.46;73.93;101132.97;4985808;28;20046;-71
2023/04/16 07:09:34;;;;;;;2.50;1.17;;;;;;;10.39;74.84;101125.81;4984820;28;20052;-71
2023/04/16 07:12:03;;;;;;;2.03;1.10;;;;;;;10.31;75.64;101117.78;4985134;28;20214;-71
2023/04/16 07:14:32;;;;;;;1.75;0.90;;;;;;;10.20;75.36;101119.94;4992268;28;20441;-71
2023/04/16 07:17:02;;;;;;;2.58;1.00;;;;;;;10.14;75.50;101116.25;4992482;28;20507;-71
2023/04/16 07:19:31;;;;;;;3.80;1.15;;;;;;;10.12;74.66;101121.34;4990219;28;20042;-71
2023/04/16 07:22:00;;;;;;;5.93;1.02;;;;;;;10.10;74.43;101112.69;4986734;28;20046;-70
2023/04/16 07:24:28;;;;;;;3.03;1.05;;;;;;;10.07;74.46;101107.38;4996302;28;20484;-70
2023/04/16 07:26:57;;;;;;;6.50;1.48;;;;;;;10.01;75.44;101107.16;5007229;28;20046;-72
2023/04/16 07:29:26;;;;;;;4.93;1.10;;;;;;;10.06;75.84;101115.97;4996171;28;20057;-70
2023/04/16 07:31:54;;;;;;;5.03;0.98;;;;;;;10.04;76.66;101120.22;4988784;28;20046;-71
2023/04/16 07:34:25;;;;;;;4.28;1.00;;;;;;;10.01;75.60;101110.63;4993562;28;20061;-70
2023/04/16 07:36:53;;;;;;;5.57;1.15;;;;;;;10.01;75.89;101101.97;4989879;28;20056;-70
2023/04/16 07:39:22;;;;;;;1.27;0.90;;;;;;;10.03;75.48;101113.25;4993595;28;20053;-70
2023/04/16 07:41:51;;;;;;;1.25;0.80;;;;;;;10.05;74.82;101109.91;4995301;28;20065;-70
2023/04/16 07:44:19;;;;;;;1.25;0.60;;;;;;;10.05;74.87;101112.47;4992126;28;20089;-71
2023/04/16 07:46:48;;;;;;;10.57;1.73;;;;;;;10.02;73.60;101103.75;4993349;28;20486;-71
2023/04/16 07:49:17;;;;;;;3.80;1.13;;;;;;;9.98;74.14;101097.56;4992655;28;20068;-70
2023/04/16 07:51:47;;;;;;;7.47;1.38;;;;;;;9.99;74.69;101103.66;4992710;28;20046;-71
2023/04/16 07:54:16;;;;;;;3.58;0.85;;;;;;;9.99;74.08;101098.47;4987036;28;20129;-71
2023/04/16 07:56:45;;;;;;;3.00;0.80;;;;;;;9.99;73.93;101098.47;4985720;28;20049;-70
2023/04/16 07:59:13;;;;;;;7.03;0.90;;;;;;;10.03;73.64;101110.66;4997700;28;20233;-71
2023/04/16 08:01:42;;;;;;;1.95;0.75;;;;;;;10.04;73.97;101110.75;4991554;28;20457;-72
2023/04/16 08:04:11;;;;;;;1.23;0.90;;;;;;;10.03;74.75;101106.41;4986917;28;20536;-71
2023/04/16 08:06:39;;;;;;;4.28;0.95;;;;;;;10.01;73.42;101102.88;4982738;28;20060;-71
2023/04/16 08:09:09;;;;;;;3.20;0.95;;;;;;;10.00;74.39;101107.97;4986487;28;20661;-71
2023/04/16 08:11:38;;;;;;;1.33;0.90;;;;;;;10.01;74.71;101107.16;4999520;28;20105;-70
2023/04/16 08:14:07;;;;;;;6.03;1.20;;;;;;;10.00;74.59;101105.41;4996991;28;20053;-70
2023/04/16 08:16:35;;;;;;;7.03;1.50;;;;;;;9.99;76.33;101101.06;5000766;28;20121;-71
2023/04/16 08:19:04;;;;;;;3.42;1.10;;;;;;;9.98;76.65;101101.88;5003718;28;20483;-71
2023/04/16 08:21:33;;;;;;;3.72;1.08;;;;;;;9.96;74.11;101103.50;5006846;28;20142;-71
2023/04/16 08:24:01;;;;;;;3.85;1.25;;;;;;;9.91;75.42;101100.75;4999029;28;20047;-70
2023/04/16 08:26:32;;;;;;;2.45;0.80;;;;;;;9.87;75.81;101098.88;5003710;28;20593;-70
2023/04/16 08:29:00;;;;;;;8.05;1.25;;;;;;;9.85;74.82;101095.38;5008821;28;20049;-71
2023/04/16 08:31:29;;;;;;;3.80;1.17;;;;;;;9.75;74.46;101078.63;5004011;28;20134;-71
2023/04/16 08:33:58;;;;;;;3.63;1.10;;;;;;;9.86;73.02;101086.78;5002287;28;20900;-71
2023/04/16 08:36:26;;;;;;;4.93;0.93;;;;;;;9.88;73.73;101089.44;5004788;28;20045;-71
2023/04/16 08:38:55;;;;;;;4.35;1.02;;;;;;;9.87;72.91;101083.38;5001099;28;20046;-71
2023/04/16 08:41:24;;;;;;;2.38;1.00;;;;;;;9.85;73.64;101080.75;5002752;28;20045;-71
2023/04/16 08:43:58;;;;;;;6.38;1.30;;;;;;;9.85;72.92;101078.16;5001731;28;20053;-71
2023/04/16 08:46:27;;;;;;;7.25;0.95;;;;;;;9.80;74.61;101084.88;4990276;28;20061;-71
2023/04/16 08:48:58;;;;;;;4.40;1.10;;;;;;;9.76;75.01;101077.81;5001074;28;20128;-72
2023/04/16 08:51:30;;;;;;;1.65;0.82;;;;;;;9.73;77.35;101075.09;5008022;28;20487;-72
2023/04/16 08:54:04;;;;;;;5.32;0.90;;;;;;;9.72;75.02;101070.75;5006620;28;20050;-71
2023/04/16 08:56:36;;;;;;;1.23;1.05;;;;;;;9.69;73.45;101075.81;5004426;28;20722;-72
2023/04/16 08:59:07;;;;;;;5.30;0.80;;;;;;;9.67;74.03;101073.97;5000910;28;20050;-72
2023/04/16 09:01:38;;;;;;;1.90;1.10;;;;;;;9.65;75.62;101082.56;5001797;28;20056;-71
2023/04/16 09:04:08;;;;;;;3.78;0.95;;;;;;;9.64;74.72;101090.25;5003436;28;20041;-72
2023/04/16 09:06:40;;;;;;;2.13;1.00;;;;;;;9.59;74.26;101082.31;5001485;28;20054;-71
2023/04/16 09:09:11;;;;;;;0.93;0.50;;;;;;;9.56;74.15;101079.63;5005866;28;20038;-72
2023/04/16 09:11:40;;;;;;;1.40;0.70;;;;;;;9.54;72.48;101072.66;5008257;28;20034;-71
2023/04/16 09:14:12;;;;;;;4.65;1.15;;;;;;;9.53;73.25;101066.59;5000095;28;20053;-72
2023/04/16 09:16:41;;;;;;;1.20;0.73;;;;;;;9.53;74.25;101065.69;4986753;28;20050;-72
2023/04/16 09:19:10;;;;;;;2.90;1.60;;;;;;;9.54;72.47;101075.22;4984201;28;20047;-72
2023/04/16 09:21:40;;;;;;;6.75;1.10;;;;;;;9.53;72.07;101071.78;4984642;28;20638;-70
2023/04/16 09:24:09;;;;;;;1.83;0.70;;;;;;;9.53;72.15;101052.78;4986772;28;20064;-70
2023/04/16 09:26:39;;;;;;;4.78;1.17;;;;;;;9.52;72.99;101049.31;4986728;28;20524;-70
2023/04/16 09:29:08;;;;;;;1.55;0.93;;;;;;;9.47;73.38;101056.03;4985043;28;20050;-70
2023/04/16 09:31:38;;;;;;;5.95;1.25;;;;;;;9.51;72.52;101049.28;4982668;28;20141;-71
2023/04/16 09:34:08;;;;;;;2.17;0.90;;;;;;;9.50;72.82;101055.25;4986355;28;20055;-71
2023/04/16 09:36:37;;;;;;;2.13;0.93;;;;;;;9.49;72.46;101053.50;4985937;28;20050;-71
2023/04/16 09:39:06;;;;;;;4.63;1.20;;;;;;;9.48;72.70;101052.59;4986531;28;20046;-70
2023/04/16 09:41:38;;;;;;;1.35;0.80;;;;;;;9.49;73.02;101054.38;4987766;28;20073;-70
2023/04/16 09:44:06;;;;;;;2.13;1.13;;;;;;;9.49;73.49;101058.69;4984199;28;20078;-70
2023/04/16 09:46:41;;;;;;;5.38;1.15;;;;;;;9.47;73.94;101052.56;4987913;28;20046;-70
2023/04/16 09:49:10;;;;;;;4.70;1.20;;;;;;;9.40;73.84;101060.06;4987601;28;20050;-71
2023/04/16 09:51:39;;;;;;;6.32;1.00;;;;;;;9.37;74.75;101053.91;4981463;28;20443;-70
2023/04/16 09:54:08;;;;;;;1.15;0.80;;;;;;;9.31;73.52;101041.63;4981893;28;20137;-70
2023/04/16 09:56:46;;;;;;;3.42;1.10;;;;;;;9.28;74.74;101048.38;4987298;28;20153;-70
2023/04/16 09:59:18;;;;;;;4.20;0.85;;;;;;;9.27;74.77;101046.63;4985654;28;20086;-71
2023/04/16 10:01:49;;;;;;;2.83;0.80;;;;;;;9.29;74.43;101044.97;4986255;28;20736;-70
2023/04/16 10:04:18;;;;;;;4.00;0.80;;;;;;;9.32;73.83;101039.91;4984568;28;20061;-70
2023/04/16 10:07:04;;;;;;;2.58;0.90;;;;;;;9.36;72.86;101046.97;4990665;28;20069;-71
2023/04/16 10:09:38;;;;;;;4.50;0.80;;;;;;;9.39;72.96;101042.81;4979924;28;20492;-70
2023/04/16 10:12:07;;;;;;;1.75;0.75;;;;;;;9.43;74.05;101044.69;4989553;28;20097;-70
2023/04/16 10:14:42;;;;;;;1.98;0.68;;;;;;;9.45;73.28;101037.00;5005300;28;20619;-70
2023/04/16 10:17:12;;;;;;;3.05;0.70;;;;;;;9.48;74.64;101033.66;5005286;28;20769;-70
2023/04/16 10:19:42;;;;;;;2.85;0.70;;;;;;;9.50;74.47;101034.59;5001431;28;20057;-71
2023/04/16 10:22:12;;;;;;;2.30;0.88;;;;;;;9.53;77.59;101035.59;4998788;28;20132;-71
2023/04/16 10:24:42;;;;;;;3.33;0.60;;;;;;;9.53;77.02;101039.88;5005822;28;20088;-71
2023/04/16 10:27:11;;;;;;;3.10;0.80;;;;;;;9.49;75.17;101028.56;5000470;28;20142;-71
2023/04/16 10:29:40;;;;;;;4.38;0.95;;;;;;;9.50;73.50;101029.44;5004960;28;20046;-71
2023/04/16 10:32:11;;;;;;;1.65;0.70;;;;;;;9.50;75.83;101026.84;5006130;28;20057;-71
2023/04/16 10:34:40;;;;;;;1.92;0.50;;;;;;;9.48;78.46;101026.78;5007115;28;20443;-71
2023/04/16 10:37:09;;;;;;;6.72;0.80;;;;;;;9.46;78.88;101027.53;5001424;28;20053;-70
2023/04/16 10:39:38;;;;;;;0.70;0.60;;;;;;;9.43;78.34;101023.16;4999196;28;20133;-71
2023/04/16 10:42:12;;;;;;;4.80;1.05;;;;;;;9.42;79.34;101013.66;5005313;28;20045;-72
2023/04/16 10:44:41;;;;;;;6.22;1.15;;;;;;;9.40;78.07;101008.41;5000242;28;20062;-71
2023/04/16 10:47:15;;;;;;;4.43;0.85;;;;;;;9.40;79.91;101008.41;4998566;28;20054;-71
2023/04/16 10:49:44;;;;;;;2.78;0.80;;;;;;;9.37;79.41;100992.81;5006691;28;20068;-70
2023/04/16 10:52:15;;;;;;;2.58;1.10;;;;;;;9.37;79.46;100997.97;5003977;28;20108;-70
2023/04/16 10:54:44;;;;;;;3.80;1.27;;;;;;;9.38;78.57;101006.59;4998186;28;20447;-71
2023/04/16 10:57:18;;;;;;;3.95;1.20;;;;;;;9.36;78.68;100998.78;5001911;28;20049;-70
2023/04/16 10:59:49;;;;;;;5.07;0.80;;;;;;;9.34;77.95;100997.84;5002865;28;20072;-70
2023/04/16 11:02:19;;;;;;;1.83;0.98;;;;;;;9.33;78.49;100996.09;5005557;28;20050;-70
2023/04/16 11:04:49;;;;;;;4.03;1.13;;;;;;;9.29;79.00;100983.88;5007879;28;20523;-71
2023/04/16 11:07:20;;;;;;;2.42;1.45;;;;;;;9.29;79.77;100989.03;5007415;28;20492;-71
2023/04/16 11:09:53;;;;;;;3.78;1.33;;;;;;;9.25;79.11;100986.28;5009106;28;20046;-71
2023/04/16 11:12:25;;;;;;;6.45;1.40;;;;;;;9.25;78.90;100986.28;5003323;28;20050;-71
2023/04/16 11:15:02;;;;;;;4.43;1.33;;;;;;;9.18;79.40;100974.84;5005044;28;20535;-71
2023/04/16 11:17:37;;;;;;;2.08;0.90;;;;;;;9.26;79.38;100976.03;5002291;28;20080;-70
2023/04/16 11:20:08;;;;;;;3.55;0.98;;;;;;;9.20;79.05;100973.19;5008450;28;20056;-71
2023/04/16 11:22:37;;;;;;;4.22;0.98;;;;;;;9.20;80.08;100978.38;5003449;28;20168;-71
2023/04/16 11:25:06;;;;;;;1.63;0.88;;;;;;;9.19;80.66;100971.44;5004048;28;20668;-71
2023/04/16 11:27:42;;;;;;;3.45;1.27;;;;;;;9.18;82.28;100961.94;5009470;28;20038;-73
2023/04/16 11:30:12;;;;;;;4.82;0.95;;;;;;;9.12;80.29;100969.47;5004922;28;20125;-72
2023/04/16 11:32:42;;;;;;;3.20;1.25;;;;;;;9.10;81.53;100971.09;5003072;28;20149;-72
2023/04/16 11:35:16;;;;;;;6.28;1.35;;;;;;;9.10;81.40;100973.69;5007954;28;20114;-71
2023/04/16 11:37:47;;;;;;;3.88;0.95;;;;;;;9.07;81.64;100968.38;5002172;28;20057;-70